sensor_id;sensor_type;location;lat;lon;timestamp;P1;durP1;ratioP1;P2;durP2;ratioP2
1719;SDS011;857;52.872;9.692;2023-06-14T00:01:44;5.40;;;2.87;;
1719;SDS011;857;52.872;9.692;2023-06-14T00:04:13;3.10;;;2.67;;
1719;SDS011;857;52.872;9.692;2023-06-14T00:06:42;4.10;;;2.70;;
1719;SDS011;857;52.872;9.692;2023-06-14T00:09:10;3.50;;;2.80;;
1719;SDS011;857;52.872;9.692;2023-06-14T00:11:40;3.10;;;2.50;;
1719;SDS011;857;52.872;9.692;2023-06-14T00:14:08;3.43;;;2.90;;
1719;SDS011;857;52.872;9.692;2023-06-14T00:16:36;5.27;;;2.93;;
1719;SDS011;857;52.872;9.692;2023-06-14T00:19:04;3.20;;;2.90;;
1719;SDS011;857;52.872;9.692;2023-06-14T00:21:32;5.50;;;2.93;;
1719;SDS011;857;52.872;9.692;2023-06-14T00:24:00;3.10;;;2.80;;
1719;SDS011;857;52.872;9.692;2023-06-14T00:26:28;6.30;;;3.97;;
1719;SDS011;857;52.872;9.692;2023-06-14T00:28:57;3.70;;;3.13;;
1719;SDS011;857;52.872;9.692;2023-06-14T00:31:26;9.20;;;3.50;;
1719;SDS011;857;52.872;9.692;2023-06-14T00:33:53;3.63;;;2.77;;
1719;SDS011;857;52.872;9.692;2023-06-14T00:36:21;3.77;;;3.10;;
1719;SDS011;857;52.872;9.692;2023-06-14T00:38:49;4.00;;;3.27;;
1719;SDS011;857;52.872;9.692;2023-06-14T00:41:16;3.67;;;3.13;;
1719;SDS011;857;52.872;9.692;2023-06-14T00:43:44;3.50;;;3.20;;
1719;SDS011;857;52.872;9.692;2023-06-14T00:46:13;4.83;;;3.33;;
1719;SDS011;857;52.872;9.692;2023-06-14T00:48:41;5.50;;;2.97;;
1719;SDS011;857;52.872;9.692;2023-06-14T00:51:09;4.10;;;3.43;;
1719;SDS011;857;52.872;9.692;2023-06-14T00:53:37;6.07;;;3.47;;
1719;SDS011;857;52.872;9.692;2023-06-14T00:56:06;4.77;;;3.03;;
1719;SDS011;857;52.872;9.692;2023-06-14T00:58:34;3.77;;;3.27;;
1719;SDS011;857;52.872;9.692;2023-06-14T01:01:01;4.07;;;3.17;;
1719;SDS011;857;52.872;9.692;2023-06-14T01:03:31;3.70;;;2.87;;
1719;SDS011;857;52.872;9.692;2023-06-14T01:05:59;4.70;;;3.20;;
1719;SDS011;857;52.872;9.692;2023-06-14T01:08:31;4.00;;;3.10;;
1719;SDS011;857;52.872;9.692;2023-06-14T01:11:03;4.50;;;3.60;;
1719;SDS011;857;52.872;9.692;2023-06-14T01:13:33;4.20;;;3.40;;
1719;SDS011;857;52.872;9.692;2023-06-14T01:16:01;3.90;;;3.50;;
1719;SDS011;857;52.872;9.692;2023-06-14T01:18:31;3.87;;;3.47;;
1719;SDS011;857;52.872;9.692;2023-06-14T01:21:01;4.93;;;3.60;;
1719;SDS011;857;52.872;9.692;2023-06-14T01:23:32;7.23;;;3.27;;
1719;SDS011;857;52.872;9.692;2023-06-14T01:26:00;3.93;;;3.10;;
1719;SDS011;857;52.872;9.692;2023-06-14T01:28:30;4.43;;;3.80;;
1719;SDS011;857;52.872;9.692;2023-06-14T01:31:00;4.73;;;3.70;;
1719;SDS011;857;52.872;9.692;2023-06-14T01:33:30;5.30;;;3.30;;
1719;SDS011;857;52.872;9.692;2023-06-14T01:35:58;4.30;;;3.53;;
1719;SDS011;857;52.872;9.692;2023-06-14T01:38:29;4.33;;;3.50;;
1719;SDS011;857;52.872;9.692;2023-06-14T01:40:59;6.03;;;3.97;;
1719;SDS011;857;52.872;9.692;2023-06-14T01:43:27;4.10;;;3.33;;
1719;SDS011;857;52.872;9.692;2023-06-14T01:45:57;4.50;;;3.73;;
1719;SDS011;857;52.872;9.692;2023-06-14T01:48:26;3.90;;;3.53;;
1719;SDS011;857;52.872;9.692;2023-06-14T01:50:54;6.60;;;3.63;;
1719;SDS011;857;52.872;9.692;2023-06-14T01:53:22;3.80;;;3.30;;
1719;SDS011;857;52.872;9.692;2023-06-14T01:55:50;7.07;;;3.43;;
1719;SDS011;857;52.872;9.692;2023-06-14T01:58:21;4.03;;;3.60;;
1719;SDS011;857;52.872;9.692;2023-06-14T02:00:49;5.43;;;3.60;;
1719;SDS011;857;52.872;9.692;2023-06-14T02:03:20;5.63;;;3.77;;
1719;SDS011;857;52.872;9.692;2023-06-14T02:05:48;7.10;;;4.13;;
1719;SDS011;857;52.872;9.692;2023-06-14T02:08:16;6.57;;;3.53;;
1719;SDS011;857;52.872;9.692;2023-06-14T02:10:44;4.70;;;3.90;;
1719;SDS011;857;52.872;9.692;2023-06-14T02:13:13;4.67;;;3.70;;
1719;SDS011;857;52.872;9.692;2023-06-14T02:15:43;6.40;;;4.10;;
1719;SDS011;857;52.872;9.692;2023-06-14T02:18:11;6.33;;;3.83;;
1719;SDS011;857;52.872;9.692;2023-06-14T02:20:39;6.10;;;4.00;;
1719;SDS011;857;52.872;9.692;2023-06-14T02:23:07;4.50;;;3.77;;
1719;SDS011;857;52.872;9.692;2023-06-14T02:25:34;5.17;;;3.70;;
1719;SDS011;857;52.872;9.692;2023-06-14T02:28:02;4.77;;;3.57;;
1719;SDS011;857;52.872;9.692;2023-06-14T02:30:31;4.47;;;3.97;;
1719;SDS011;857;52.872;9.692;2023-06-14T02:33:00;5.83;;;3.80;;
1719;SDS011;857;52.872;9.692;2023-06-14T02:35:29;4.50;;;4.10;;
1719;SDS011;857;52.872;9.692;2023-06-14T02:37:57;4.80;;;4.10;;
1719;SDS011;857;52.872;9.692;2023-06-14T02:40:25;6.60;;;4.57;;
1719;SDS011;857;52.872;9.692;2023-06-14T02:42:53;5.40;;;4.27;;
1719;SDS011;857;52.872;9.692;2023-06-14T02:45:20;5.27;;;3.90;;
1719;SDS011;857;52.872;9.692;2023-06-14T02:47:48;4.13;;;3.73;;
1719;SDS011;857;52.872;9.692;2023-06-14T02:50:18;4.60;;;4.00;;
1719;SDS011;857;52.872;9.692;2023-06-14T02:52:47;4.40;;;4.00;;
1719;SDS011;857;52.872;9.692;2023-06-14T02:55:14;6.47;;;4.40;;
1719;SDS011;857;52.872;9.692;2023-06-14T02:57:42;8.00;;;4.50;;
1719;SDS011;857;52.872;9.692;2023-06-14T03:00:10;4.60;;;3.90;;
1719;SDS011;857;52.872;9.692;2023-06-14T03:02:41;4.70;;;3.70;;
1719;SDS011;857;52.872;9.692;2023-06-14T03:05:10;5.80;;;4.63;;
1719;SDS011;857;52.872;9.692;2023-06-14T03:07:40;6.00;;;4.53;;
1719;SDS011;857;52.872;9.692;2023-06-14T03:10:11;7.10;;;4.30;;
1719;SDS011;857;52.872;9.692;2023-06-14T03:12:41;5.70;;;4.00;;
1719;SDS011;857;52.872;9.692;2023-06-14T03:15:10;6.10;;;4.30;;
1719;SDS011;857;52.872;9.692;2023-06-14T03:17:42;6.40;;;4.07;;
1719;SDS011;857;52.872;9.692;2023-06-14T03:20:11;5.80;;;3.90;;
1719;SDS011;857;52.872;9.692;2023-06-14T03:22:41;5.27;;;3.97;;
1719;SDS011;857;52.872;9.692;2023-06-14T03:25:11;4.57;;;4.17;;
1719;SDS011;857;52.872;9.692;2023-06-14T03:27:40;4.43;;;3.93;;
1719;SDS011;857;52.872;9.692;2023-06-14T03:30:08;6.53;;;3.83;;
1719;SDS011;857;52.872;9.692;2023-06-14T03:32:36;4.40;;;4.00;;
1719;SDS011;857;52.872;9.692;2023-06-14T03:35:05;5.97;;;4.47;;
1719;SDS011;857;52.872;9.692;2023-06-14T03:37:33;5.70;;;4.07;;
1719;SDS011;857;52.872;9.692;2023-06-14T03:40:02;5.43;;;3.93;;
1719;SDS011;857;52.872;9.692;2023-06-14T03:42:37;4.80;;;4.07;;
1719;SDS011;857;52.872;9.692;2023-06-14T03:45:06;4.63;;;4.10;;
1719;SDS011;857;52.872;9.692;2023-06-14T03:47:34;5.03;;;3.90;;
1719;SDS011;857;52.872;9.692;2023-06-14T03:50:02;7.37;;;4.47;;
1719;SDS011;857;52.872;9.692;2023-06-14T03:52:30;6.00;;;4.50;;
1719;SDS011;857;52.872;9.692;2023-06-14T03:54:58;6.60;;;3.73;;
1719;SDS011;857;52.872;9.692;2023-06-14T03:57:29;5.90;;;4.03;;
1719;SDS011;857;52.872;9.692;2023-06-14T03:59:57;5.30;;;4.60;;
1719;SDS011;857;52.872;9.692;2023-06-14T04:02:26;6.00;;;4.33;;
1719;SDS011;857;52.872;9.692;2023-06-14T04:04:55;5.43;;;4.23;;
1719;SDS011;857;52.872;9.692;2023-06-14T04:07:25;6.53;;;4.90;;
1719;SDS011;857;52.872;9.692;2023-06-14T04:09:54;6.20;;;4.87;;
1719;SDS011;857;52.872;9.692;2023-06-14T04:12:22;7.27;;;4.23;;
1719;SDS011;857;52.872;9.692;2023-06-14T04:14:51;5.73;;;4.33;;
1719;SDS011;857;52.872;9.692;2023-06-14T04:17:19;8.00;;;4.60;;
1719;SDS011;857;52.872;9.692;2023-06-14T04:19:47;7.80;;;4.67;;
1719;SDS011;857;52.872;9.692;2023-06-14T04:22:14;6.67;;;5.00;;
1719;SDS011;857;52.872;9.692;2023-06-14T04:24:43;5.07;;;4.57;;
1719;SDS011;857;52.872;9.692;2023-06-14T04:27:11;8.53;;;4.30;;
1719;SDS011;857;52.872;9.692;2023-06-14T04:29:40;5.67;;;4.70;;
1719;SDS011;857;52.872;9.692;2023-06-14T04:32:13;5.20;;;4.50;;
1719;SDS011;857;52.872;9.692;2023-06-14T04:34:41;5.27;;;4.60;;
1719;SDS011;857;52.872;9.692;2023-06-14T04:37:10;4.50;;;4.10;;
1719;SDS011;857;52.872;9.692;2023-06-14T04:39:41;5.03;;;4.20;;
1719;SDS011;857;52.872;9.692;2023-06-14T04:42:08;5.47;;;4.50;;
1719;SDS011;857;52.872;9.692;2023-06-14T04:44:40;4.67;;;4.03;;
1719;SDS011;857;52.872;9.692;2023-06-14T04:47:10;6.23;;;4.43;;
1719;SDS011;857;52.872;9.692;2023-06-14T04:49:39;5.50;;;4.20;;
1719;SDS011;857;52.872;9.692;2023-06-14T04:52:07;5.30;;;4.80;;
1719;SDS011;857;52.872;9.692;2023-06-14T04:54:40;5.07;;;4.13;;
1719;SDS011;857;52.872;9.692;2023-06-14T04:57:10;6.27;;;4.63;;
1719;SDS011;857;52.872;9.692;2023-06-14T04:59:40;6.37;;;4.70;;
1719;SDS011;857;52.872;9.692;2023-06-14T05:02:09;5.90;;;4.30;;
1719;SDS011;857;52.872;9.692;2023-06-14T05:04:37;3.77;;;3.47;;
1719;SDS011;857;52.872;9.692;2023-06-14T05:07:08;6.50;;;4.27;;
1719;SDS011;857;52.872;9.692;2023-06-14T05:09:36;4.53;;;4.00;;
1719;SDS011;857;52.872;9.692;2023-06-14T05:12:05;6.57;;;3.90;;
1719;SDS011;857;52.872;9.692;2023-06-14T05:14:34;7.53;;;4.90;;
1719;SDS011;857;52.872;9.692;2023-06-14T05:17:03;4.30;;;3.90;;
1719;SDS011;857;52.872;9.692;2023-06-14T05:19:31;3.40;;;3.10;;
1719;SDS011;857;52.872;9.692;2023-06-14T05:21:59;3.90;;;2.97;;
1719;SDS011;857;52.872;9.692;2023-06-14T05:24:29;5.33;;;4.00;;
1719;SDS011;857;52.872;9.692;2023-06-14T05:26:57;5.30;;;4.33;;
1719;SDS011;857;52.872;9.692;2023-06-14T05:29:25;6.00;;;4.37;;
1719;SDS011;857;52.872;9.692;2023-06-14T05:31:53;3.17;;;2.80;;
1719;SDS011;857;52.872;9.692;2023-06-14T05:34:21;11.20;;;4.00;;
1719;SDS011;857;52.872;9.692;2023-06-14T05:36:48;6.40;;;4.20;;
1719;SDS011;857;52.872;9.692;2023-06-14T05:39:16;5.23;;;4.40;;
1719;SDS011;857;52.872;9.692;2023-06-14T05:41:46;4.80;;;4.30;;
1719;SDS011;857;52.872;9.692;2023-06-14T05:44:13;5.57;;;4.20;;
1719;SDS011;857;52.872;9.692;2023-06-14T05:46:41;5.40;;;3.80;;
1719;SDS011;857;52.872;9.692;2023-06-14T05:49:09;3.30;;;3.00;;
1719;SDS011;857;52.872;9.692;2023-06-14T05:51:37;4.73;;;3.60;;
1719;SDS011;857;52.872;9.692;2023-06-14T05:54:05;3.90;;;3.60;;
1719;SDS011;857;52.872;9.692;2023-06-14T05:56:33;4.00;;;3.57;;
1719;SDS011;857;52.872;9.692;2023-06-14T05:59:02;3.60;;;3.13;;
1719;SDS011;857;52.872;9.692;2023-06-14T06:01:30;5.10;;;4.07;;
1719;SDS011;857;52.872;9.692;2023-06-14T06:03:59;3.97;;;3.20;;
1719;SDS011;857;52.872;9.692;2023-06-14T06:06:27;4.03;;;3.63;;
1719;SDS011;857;52.872;9.692;2023-06-14T06:08:55;3.57;;;3.17;;
1719;SDS011;857;52.872;9.692;2023-06-14T06:11:22;3.17;;;2.87;;
1719;SDS011;857;52.872;9.692;2023-06-14T06:13:50;5.13;;;3.40;;
1719;SDS011;857;52.872;9.692;2023-06-14T06:16:19;3.83;;;3.43;;
1719;SDS011;857;52.872;9.692;2023-06-14T06:18:47;3.40;;;3.10;;
1719;SDS011;857;52.872;9.692;2023-06-14T06:21:15;3.47;;;3.17;;
1719;SDS011;857;52.872;9.692;2023-06-14T06:23:42;5.17;;;3.40;;
1719;SDS011;857;52.872;9.692;2023-06-14T06:26:10;4.73;;;3.80;;
1719;SDS011;857;52.872;9.692;2023-06-14T06:28:38;2.70;;;2.40;;
1719;SDS011;857;52.872;9.692;2023-06-14T06:31:05;7.10;;;3.20;;
1719;SDS011;857;52.872;9.692;2023-06-14T06:33:34;3.10;;;2.87;;
1719;SDS011;857;52.872;9.692;2023-06-14T06:36:02;6.30;;;3.53;;
1719;SDS011;857;52.872;9.692;2023-06-14T06:38:30;3.80;;;3.13;;
1719;SDS011;857;52.872;9.692;2023-06-14T06:40:57;4.00;;;3.20;;
1719;SDS011;857;52.872;9.692;2023-06-14T06:43:25;2.70;;;2.50;;
1719;SDS011;857;52.872;9.692;2023-06-14T06:45:56;4.50;;;2.93;;
1719;SDS011;857;52.872;9.692;2023-06-14T06:48:24;4.43;;;3.17;;
1719;SDS011;857;52.872;9.692;2023-06-14T06:50:53;3.63;;;3.30;;
1719;SDS011;857;52.872;9.692;2023-06-14T06:53:20;3.20;;;2.60;;
1719;SDS011;857;52.872;9.692;2023-06-14T06:55:48;3.27;;;2.97;;
1719;SDS011;857;52.872;9.692;2023-06-14T06:58:16;3.73;;;3.20;;
1719;SDS011;857;52.872;9.692;2023-06-14T07:00:44;4.30;;;3.07;;
1719;SDS011;857;52.872;9.692;2023-06-14T07:03:11;3.00;;;2.70;;
1719;SDS011;857;52.872;9.692;2023-06-14T07:05:39;3.20;;;2.90;;
1719;SDS011;857;52.872;9.692;2023-06-14T07:08:08;4.10;;;2.77;;
1719;SDS011;857;52.872;9.692;2023-06-14T07:10:36;3.30;;;2.70;;
1719;SDS011;857;52.872;9.692;2023-06-14T07:13:03;3.70;;;2.90;;
1719;SDS011;857;52.872;9.692;2023-06-14T07:15:31;3.30;;;3.00;;
1719;SDS011;857;52.872;9.692;2023-06-14T07:17:59;3.20;;;2.90;;
1719;SDS011;857;52.872;9.692;2023-06-14T07:20:26;3.13;;;2.83;;
1719;SDS011;857;52.872;9.692;2023-06-14T07:22:54;2.60;;;2.40;;
1719;SDS011;857;52.872;9.692;2023-06-14T07:25:23;3.47;;;3.17;;
1719;SDS011;857;52.872;9.692;2023-06-14T07:27:51;3.90;;;3.17;;
1719;SDS011;857;52.872;9.692;2023-06-14T07:30:19;3.00;;;2.50;;
1719;SDS011;857;52.872;9.692;2023-06-14T07:32:51;5.40;;;2.97;;
1719;SDS011;857;52.872;9.692;2023-06-14T07:35:19;3.20;;;2.57;;
1719;SDS011;857;52.872;9.692;2023-06-14T07:37:46;2.97;;;2.73;;
1719;SDS011;857;52.872;9.692;2023-06-14T07:40:15;3.27;;;2.50;;
1719;SDS011;857;52.872;9.692;2023-06-14T07:42:44;3.30;;;3.00;;
1719;SDS011;857;52.872;9.692;2023-06-14T07:45:12;3.53;;;3.10;;
1719;SDS011;857;52.872;9.692;2023-06-14T07:47:40;3.37;;;3.00;;
1719;SDS011;857;52.872;9.692;2023-06-14T07:50:08;2.50;;;2.30;;
1719;SDS011;857;52.872;9.692;2023-06-14T07:52:38;4.50;;;2.60;;
1719;SDS011;857;52.872;9.692;2023-06-14T07:55:06;3.20;;;2.77;;
1719;SDS011;857;52.872;9.692;2023-06-14T07:57:34;2.70;;;2.50;;
1719;SDS011;857;52.872;9.692;2023-06-14T08:00:04;2.57;;;2.37;;
1719;SDS011;857;52.872;9.692;2023-06-14T08:02:37;4.00;;;2.50;;
1719;SDS011;857;52.872;9.692;2023-06-14T08:05:05;3.97;;;2.77;;
1719;SDS011;857;52.872;9.692;2023-06-14T08:07:33;3.77;;;2.70;;
1719;SDS011;857;52.872;9.692;2023-06-14T08:10:01;3.27;;;2.97;;
1719;SDS011;857;52.872;9.692;2023-06-14T08:12:29;3.33;;;2.40;;
1719;SDS011;857;52.872;9.692;2023-06-14T08:14:57;4.63;;;2.93;;
1719;SDS011;857;52.872;9.692;2023-06-14T08:17:26;3.00;;;2.70;;
1719;SDS011;857;52.872;9.692;2023-06-14T08:19:53;2.93;;;2.67;;
1719;SDS011;857;52.872;9.692;2023-06-14T08:22:22;3.83;;;2.60;;
1719;SDS011;857;52.872;9.692;2023-06-14T08:24:53;3.37;;;3.07;;
1719;SDS011;857;52.872;9.692;2023-06-14T08:27:21;2.67;;;2.47;;
1719;SDS011;857;52.872;9.692;2023-06-14T08:29:49;2.93;;;2.73;;
1719;SDS011;857;52.872;9.692;2023-06-14T08:32:16;3.00;;;2.70;;
1719;SDS011;857;52.872;9.692;2023-06-14T08:34:46;2.93;;;2.60;;
1719;SDS011;857;52.872;9.692;2023-06-14T08:37:13;3.10;;;2.90;;
1719;SDS011;857;52.872;9.692;2023-06-14T08:39:41;3.00;;;2.70;;
1719;SDS011;857;52.872;9.692;2023-06-14T08:42:09;2.50;;;2.30;;
1719;SDS011;857;52.872;9.692;2023-06-14T08:44:37;3.13;;;2.83;;
1719;SDS011;857;52.872;9.692;2023-06-14T08:47:05;3.27;;;2.97;;
1719;SDS011;857;52.872;9.692;2023-06-14T08:49:33;5.30;;;2.93;;
1719;SDS011;857;52.872;9.692;2023-06-14T08:52:05;3.93;;;2.70;;
1719;SDS011;857;52.872;9.692;2023-06-14T08:54:36;5.40;;;3.20;;
1719;SDS011;857;52.872;9.692;2023-06-14T08:57:09;3.17;;;2.87;;
1719;SDS011;857;52.872;9.692;2023-06-14T08:59:43;3.27;;;2.43;;
1719;SDS011;857;52.872;9.692;2023-06-14T09:02:14;3.53;;;3.23;;
1719;SDS011;857;52.872;9.692;2023-06-14T09:04:45;4.80;;;3.30;;
1719;SDS011;857;52.872;9.692;2023-06-14T09:07:14;3.20;;;2.90;;
1719;SDS011;857;52.872;9.692;2023-06-14T09:09:41;3.20;;;2.90;;
1719;SDS011;857;52.872;9.692;2023-06-14T09:12:10;3.07;;;2.87;;
1719;SDS011;857;52.872;9.692;2023-06-14T09:14:38;5.43;;;3.37;;
1719;SDS011;857;52.872;9.692;2023-06-14T09:17:07;2.87;;;2.67;;
1719;SDS011;857;52.872;9.692;2023-06-14T09:19:35;7.50;;;3.13;;
1719;SDS011;857;52.872;9.692;2023-06-14T09:22:03;5.00;;;4.43;;
1719;SDS011;857;52.872;9.692;2023-06-14T09:24:32;4.87;;;3.27;;
1719;SDS011;857;52.872;9.692;2023-06-14T09:27:00;3.50;;;3.20;;
1719;SDS011;857;52.872;9.692;2023-06-14T09:29:28;3.30;;;3.00;;
1719;SDS011;857;52.872;9.692;2023-06-14T09:31:57;2.80;;;2.57;;
1719;SDS011;857;52.872;9.692;2023-06-14T09:34:25;4.43;;;4.03;;
1719;SDS011;857;52.872;9.692;2023-06-14T09:36:53;3.00;;;2.70;;
1719;SDS011;857;52.872;9.692;2023-06-14T09:39:21;3.87;;;3.57;;
1719;SDS011;857;52.872;9.692;2023-06-14T09:41:52;3.33;;;3.07;;
1719;SDS011;857;52.872;9.692;2023-06-14T09:44:19;3.40;;;3.10;;
1719;SDS011;857;52.872;9.692;2023-06-14T09:46:47;2.93;;;2.63;;
1719;SDS011;857;52.872;9.692;2023-06-14T09:49:15;4.97;;;4.00;;
1719;SDS011;857;52.872;9.692;2023-06-14T09:51:43;3.40;;;3.10;;
1719;SDS011;857;52.872;9.692;2023-06-14T09:54:14;4.00;;;3.60;;
1719;SDS011;857;52.872;9.692;2023-06-14T09:56:44;6.40;;;4.13;;
1719;SDS011;857;52.872;9.692;2023-06-14T09:59:13;3.90;;;3.47;;
1719;SDS011;857;52.872;9.692;2023-06-14T10:01:42;2.50;;;2.30;;
1719;SDS011;857;52.872;9.692;2023-06-14T10:04:10;2.70;;;2.50;;
1719;SDS011;857;52.872;9.692;2023-06-14T10:06:40;2.60;;;2.40;;
1719;SDS011;857;52.872;9.692;2023-06-14T10:09:08;3.80;;;3.50;;
1719;SDS011;857;52.872;9.692;2023-06-14T10:11:36;3.63;;;3.33;;
1719;SDS011;857;52.872;9.692;2023-06-14T10:14:09;7.60;;;2.80;;
1719;SDS011;857;52.872;9.692;2023-06-14T10:16:48;3.23;;;3.03;;
1719;SDS011;857;52.872;9.692;2023-06-14T10:19:20;3.70;;;3.13;;
1719;SDS011;857;52.872;9.692;2023-06-14T10:21:51;3.83;;;3.53;;
1719;SDS011;857;52.872;9.692;2023-06-14T10:24:24;3.53;;;3.23;;
1719;SDS011;857;52.872;9.692;2023-06-14T10:26:57;4.03;;;3.63;;
1719;SDS011;857;52.872;9.692;2023-06-14T10:29:25;3.37;;;3.07;;
1719;SDS011;857;52.872;9.692;2023-06-14T10:31:56;5.03;;;3.60;;
1719;SDS011;857;52.872;9.692;2023-06-14T10:34:25;3.90;;;3.50;;
1719;SDS011;857;52.872;9.692;2023-06-14T10:37:03;3.83;;;3.37;;
1719;SDS011;857;52.872;9.692;2023-06-14T10:39:31;3.10;;;2.83;;
1719;SDS011;857;52.872;9.692;2023-06-14T10:42:01;3.97;;;3.57;;
1719;SDS011;857;52.872;9.692;2023-06-14T10:47:27;2.97;;;2.77;;
1719;SDS011;857;52.872;9.692;2023-06-14T10:49:55;3.00;;;2.60;;
1719;SDS011;857;52.872;9.692;2023-06-14T10:52:25;4.83;;;4.03;;
1719;SDS011;857;52.872;9.692;2023-06-14T10:54:58;4.50;;;4.00;;
1719;SDS011;857;52.872;9.692;2023-06-14T10:57:26;3.43;;;3.03;;
1719;SDS011;857;52.872;9.692;2023-06-14T10:59:54;4.70;;;3.73;;
1719;SDS011;857;52.872;9.692;2023-06-14T11:05:14;4.03;;;3.67;;
1719;SDS011;857;52.872;9.692;2023-06-14T11:07:47;3.80;;;3.50;;
1719;SDS011;857;52.872;9.692;2023-06-14T11:10:19;4.00;;;3.60;;
1719;SDS011;857;52.872;9.692;2023-06-14T11:12:49;3.60;;;3.30;;
1719;SDS011;857;52.872;9.692;2023-06-14T11:15:19;4.77;;;2.63;;
1719;SDS011;857;52.872;9.692;2023-06-14T11:17:50;3.83;;;3.53;;
1719;SDS011;857;52.872;9.692;2023-06-14T11:20:19;4.10;;;3.70;;
1719;SDS011;857;52.872;9.692;2023-06-14T11:22:48;4.87;;;3.43;;
1719;SDS011;857;52.872;9.692;2023-06-14T11:25:15;4.10;;;3.70;;
1719;SDS011;857;52.872;9.692;2023-06-14T11:27:43;3.37;;;3.07;;
1719;SDS011;857;52.872;9.692;2023-06-14T11:30:12;4.23;;;3.83;;
1719;SDS011;857;52.872;9.692;2023-06-14T11:32:40;3.20;;;2.90;;
1719;SDS011;857;52.872;9.692;2023-06-14T11:35:08;4.60;;;4.20;;
1719;SDS011;857;52.872;9.692;2023-06-14T11:37:37;3.67;;;3.00;;
1719;SDS011;857;52.872;9.692;2023-06-14T11:40:08;5.73;;;3.93;;
1719;SDS011;857;52.872;9.692;2023-06-14T11:42:37;4.13;;;2.67;;
1719;SDS011;857;52.872;9.692;2023-06-14T11:45:07;4.27;;;3.57;;
1719;SDS011;857;52.872;9.692;2023-06-14T11:47:35;3.37;;;3.07;;
1719;SDS011;857;52.872;9.692;2023-06-14T11:50:04;4.00;;;3.70;;
1719;SDS011;857;52.872;9.692;2023-06-14T11:52:32;3.47;;;3.00;;
1719;SDS011;857;52.872;9.692;2023-06-14T11:55:00;3.20;;;2.73;;
1719;SDS011;857;52.872;9.692;2023-06-14T11:57:31;6.93;;;4.00;;
1719;SDS011;857;52.872;9.692;2023-06-14T12:00:03;3.80;;;3.50;;
1719;SDS011;857;52.872;9.692;2023-06-14T12:02:37;5.00;;;3.80;;
1719;SDS011;857;52.872;9.692;2023-06-14T12:05:06;3.97;;;3.40;;
1719;SDS011;857;52.872;9.692;2023-06-14T12:07:36;3.77;;;3.07;;
1719;SDS011;857;52.872;9.692;2023-06-14T12:10:06;2.70;;;2.50;;
1719;SDS011;857;52.872;9.692;2023-06-14T12:12:37;4.10;;;3.40;;
1719;SDS011;857;52.872;9.692;2023-06-14T12:15:05;3.40;;;3.10;;
1719;SDS011;857;52.872;9.692;2023-06-14T12:17:33;3.60;;;3.30;;
1719;SDS011;857;52.872;9.692;2023-06-14T12:20:05;3.60;;;3.30;;
1719;SDS011;857;52.872;9.692;2023-06-14T12:22:36;4.57;;;4.17;;
1719;SDS011;857;52.872;9.692;2023-06-14T12:25:04;4.30;;;3.33;;
1719;SDS011;857;52.872;9.692;2023-06-14T12:27:41;5.40;;;3.63;;
1719;SDS011;857;52.872;9.692;2023-06-14T12:30:09;4.37;;;3.97;;
1719;SDS011;857;52.872;9.692;2023-06-14T12:32:37;3.00;;;2.70;;
1719;SDS011;857;52.872;9.692;2023-06-14T12:35:06;5.47;;;3.17;;
1719;SDS011;857;52.872;9.692;2023-06-14T12:37:34;4.00;;;3.37;;
1719;SDS011;857;52.872;9.692;2023-06-14T12:40:02;3.60;;;3.30;;
1719;SDS011;857;52.872;9.692;2023-06-14T12:42:31;3.77;;;3.47;;
1719;SDS011;857;52.872;9.692;2023-06-14T12:45:00;3.90;;;3.60;;
1719;SDS011;857;52.872;9.692;2023-06-14T12:47:28;5.20;;;3.73;;
1719;SDS011;857;52.872;9.692;2023-06-14T12:49:56;5.63;;;4.03;;
1719;SDS011;857;52.872;9.692;2023-06-14T12:52:24;4.13;;;3.73;;
1719;SDS011;857;52.872;9.692;2023-06-14T12:54:51;2.53;;;2.33;;
1719;SDS011;857;52.872;9.692;2023-06-14T12:57:19;2.87;;;2.67;;
1719;SDS011;857;52.872;9.692;2023-06-14T12:59:47;3.53;;;3.23;;
1719;SDS011;857;52.872;9.692;2023-06-14T13:02:16;4.20;;;3.40;;
1719;SDS011;857;52.872;9.692;2023-06-14T13:04:44;2.93;;;2.70;;
1719;SDS011;857;52.872;9.692;2023-06-14T13:07:12;3.20;;;2.90;;
1719;SDS011;857;52.872;9.692;2023-06-14T13:09:41;3.60;;;3.30;;
1719;SDS011;857;52.872;9.692;2023-06-14T13:12:09;2.90;;;2.70;;
1719;SDS011;857;52.872;9.692;2023-06-14T13:14:38;3.17;;;2.60;;
1719;SDS011;857;52.872;9.692;2023-06-14T13:17:06;3.47;;;3.17;;
1719;SDS011;857;52.872;9.692;2023-06-14T13:19:35;3.43;;;3.13;;
1719;SDS011;857;52.872;9.692;2023-06-14T13:22:03;3.27;;;2.97;;
1719;SDS011;857;52.872;9.692;2023-06-14T13:24:30;4.70;;;3.50;;
1719;SDS011;857;52.872;9.692;2023-06-14T13:26:58;3.07;;;2.80;;
1719;SDS011;857;52.872;9.692;2023-06-14T13:29:26;3.20;;;2.90;;
1719;SDS011;857;52.872;9.692;2023-06-14T13:31:53;4.17;;;3.80;;
1719;SDS011;857;52.872;9.692;2023-06-14T13:34:21;3.70;;;3.40;;
1719;SDS011;857;52.872;9.692;2023-06-14T13:36:56;3.30;;;3.00;;
1719;SDS011;857;52.872;9.692;2023-06-14T13:39:24;3.17;;;2.97;;
1719;SDS011;857;52.872;9.692;2023-06-14T13:41:52;5.40;;;3.70;;
1719;SDS011;857;52.872;9.692;2023-06-14T13:44:20;3.40;;;2.83;;
1719;SDS011;857;52.872;9.692;2023-06-14T13:46:47;4.13;;;3.50;;
1719;SDS011;857;52.872;9.692;2023-06-14T13:49:15;4.50;;;3.90;;
1719;SDS011;857;52.872;9.692;2023-06-14T13:51:43;4.77;;;4.10;;
1719;SDS011;857;52.872;9.692;2023-06-14T13:54:13;3.97;;;3.57;;
1719;SDS011;857;52.872;9.692;2023-06-14T13:56:41;4.10;;;3.77;;
1719;SDS011;857;52.872;9.692;2023-06-14T13:59:08;4.10;;;3.70;;
1719;SDS011;857;52.872;9.692;2023-06-14T14:01:36;3.70;;;3.40;;
1719;SDS011;857;52.872;9.692;2023-06-14T14:04:04;4.20;;;3.80;;
1719;SDS011;857;52.872;9.692;2023-06-14T14:06:31;3.53;;;3.23;;
1719;SDS011;857;52.872;9.692;2023-06-14T14:09:00;3.47;;;3.17;;
1719;SDS011;857;52.872;9.692;2023-06-14T14:11:29;3.50;;;3.10;;
1719;SDS011;857;52.872;9.692;2023-06-14T14:13:57;2.83;;;2.63;;
1719;SDS011;857;52.872;9.692;2023-06-14T14:16:25;5.70;;;3.43;;
1719;SDS011;857;52.872;9.692;2023-06-14T14:18:53;3.87;;;3.30;;
1719;SDS011;857;52.872;9.692;2023-06-14T14:21:20;3.40;;;3.10;;
1719;SDS011;857;52.872;9.692;2023-06-14T14:23:48;4.10;;;3.70;;
1719;SDS011;857;52.872;9.692;2023-06-14T14:26:16;6.13;;;3.80;;
1719;SDS011;857;52.872;9.692;2023-06-14T14:28:45;10.17;;;3.63;;
1719;SDS011;857;52.872;9.692;2023-06-14T14:31:13;4.50;;;3.37;;
1719;SDS011;857;52.872;9.692;2023-06-14T14:33:41;3.40;;;3.10;;
1719;SDS011;857;52.872;9.692;2023-06-14T14:36:09;4.00;;;2.83;;
1719;SDS011;857;52.872;9.692;2023-06-14T14:38:36;2.90;;;2.70;;
1719;SDS011;857;52.872;9.692;2023-06-14T14:41:04;3.67;;;3.37;;
1719;SDS011;857;52.872;9.692;2023-06-14T14:43:32;4.00;;;3.60;;
1719;SDS011;857;52.872;9.692;2023-06-14T14:46:01;3.80;;;3.40;;
1719;SDS011;857;52.872;9.692;2023-06-14T14:48:29;3.20;;;2.90;;
1719;SDS011;857;52.872;9.692;2023-06-14T14:50:57;5.70;;;3.67;;
1719;SDS011;857;52.872;9.692;2023-06-14T14:53:25;2.80;;;2.60;;
1719;SDS011;857;52.872;9.692;2023-06-14T14:55:52;3.93;;;3.30;;
1719;SDS011;857;52.872;9.692;2023-06-14T14:58:20;2.93;;;2.63;;
1719;SDS011;857;52.872;9.692;2023-06-14T15:00:48;3.07;;;2.77;;
1719;SDS011;857;52.872;9.692;2023-06-14T15:03:17;2.90;;;2.60;;
1719;SDS011;857;52.872;9.692;2023-06-14T15:05:44;2.63;;;2.43;;
1719;SDS011;857;52.872;9.692;2023-06-14T15:08:12;3.70;;;3.40;;
1719;SDS011;857;52.872;9.692;2023-06-14T15:10:40;2.87;;;2.67;;
1719;SDS011;857;52.872;9.692;2023-06-14T15:13:08;4.83;;;3.90;;
1719;SDS011;857;52.872;9.692;2023-06-14T15:15:36;3.43;;;3.13;;
1719;SDS011;857;52.872;9.692;2023-06-14T15:18:04;3.50;;;2.90;;
1719;SDS011;857;52.872;9.692;2023-06-14T15:20:33;4.43;;;3.23;;
1719;SDS011;857;52.872;9.692;2023-06-14T15:23:01;3.40;;;3.10;;
1719;SDS011;857;52.872;9.692;2023-06-14T15:25:29;3.17;;;2.87;;
1719;SDS011;857;52.872;9.692;2023-06-14T15:27:58;3.83;;;2.97;;
1719;SDS011;857;52.872;9.692;2023-06-14T15:30:27;3.43;;;3.13;;
1719;SDS011;857;52.872;9.692;2023-06-14T15:32:55;3.70;;;2.90;;
1719;SDS011;857;52.872;9.692;2023-06-14T15:35:23;5.47;;;3.10;;
1719;SDS011;857;52.872;9.692;2023-06-14T15:37:52;3.40;;;3.10;;
1719;SDS011;857;52.872;9.692;2023-06-14T15:40:19;3.60;;;3.23;;
1719;SDS011;857;52.872;9.692;2023-06-14T15:42:47;3.80;;;3.00;;
1719;SDS011;857;52.872;9.692;2023-06-14T15:45:15;3.47;;;3.17;;